sensor_id;sensor_type;location;lat;lon;timestamp;P1;durP1;ratioP1;P2;durP2;ratioP2
35225;SDS011;21813;49.686;21.766;2023-02-24T00:01:24;29.92;;;14.60;;
35225;SDS011;21813;49.686;21.766;2023-02-24T00:03:58;23.85;;;11.18;;
35225;SDS011;21813;49.686;21.766;2023-02-24T00:06:27;25.73;;;11.73;;
35225;SDS011;21813;49.686;21.766;2023-02-24T00:09:17;27.60;;;12.35;;
35225;SDS011;21813;49.686;21.766;2023-02-24T00:11:58;22.55;;;10.02;;
35225;SDS011;21813;49.686;21.766;2023-02-24T00:14:31;29.50;;;11.32;;
35225;SDS011;21813;49.686;21.766;2023-02-24T00:16:59;25.17;;;10.80;;
35225;SDS011;21813;49.686;21.766;2023-02-24T00:19:26;24.60;;;10.48;;
35225;SDS011;21813;49.686;21.766;2023-02-24T00:21:54;22.23;;;9.70;;
35225;SDS011;21813;49.686;21.766;2023-02-24T00:24:20;25.40;;;10.55;;
35225;SDS011;21813;49.686;21.766;2023-02-24T00:26:54;27.73;;;10.40;;
35225;SDS011;21813;49.686;21.766;2023-02-24T00:29:24;22.42;;;9.60;;
35225;SDS011;21813;49.686;21.766;2023-02-24T00:31:55;22.38;;;9.93;;
35225;SDS011;21813;49.686;21.766;2023-02-24T00:34:27;23.83;;;9.65;;
35225;SDS011;21813;49.686;21.766;2023-02-24T00:37:49;24.98;;;9.70;;
35225;SDS011;21813;49.686;21.766;2023-02-24T00:40:18;18.92;;;8.40;;
35225;SDS011;21813;49.686;21.766;2023-02-24T00:43:11;20.67;;;8.70;;
35225;SDS011;21813;49.686;21.766;2023-02-24T00:45:37;19.40;;;8.63;;
35225;SDS011;21813;49.686;21.766;2023-02-24T00:48:05;21.35;;;9.48;;
35225;SDS011;21813;49.686;21.766;2023-02-24T00:50:35;21.70;;;9.68;;
35225;SDS011;21813;49.686;21.766;2023-02-24T00:53:05;26.10;;;10.20;;
35225;SDS011;21813;49.686;21.766;2023-02-24T00:55:30;18.83;;;9.43;;
35225;SDS011;21813;49.686;21.766;2023-02-24T00:58:02;20.95;;;9.10;;
35225;SDS011;21813;49.686;21.766;2023-02-24T01:00:29;22.58;;;9.70;;
35225;SDS011;21813;49.686;21.766;2023-02-24T01:05:26;21.73;;;9.40;;
35225;SDS011;21813;49.686;21.766;2023-02-24T01:07:53;22.85;;;9.70;;
35225;SDS011;21813;49.686;21.766;2023-02-24T01:10:19;23.45;;;9.32;;
35225;SDS011;21813;49.686;21.766;2023-02-24T01:12:47;22.30;;;11.43;;
35225;SDS011;21813;49.686;21.766;2023-02-24T01:15:18;24.50;;;9.93;;
35225;SDS011;21813;49.686;21.766;2023-02-24T01:17:47;20.77;;;9.13;;
35225;SDS011;21813;49.686;21.766;2023-02-24T01:20:13;25.55;;;9.75;;
35225;SDS011;21813;49.686;21.766;2023-02-24T01:22:44;18.48;;;8.95;;
35225;SDS011;21813;49.686;21.766;2023-02-24T01:25:12;18.52;;;9.00;;
35225;SDS011;21813;49.686;21.766;2023-02-24T01:27:38;18.35;;;9.20;;
35225;SDS011;21813;49.686;21.766;2023-02-24T01:30:05;18.20;;;8.90;;
35225;SDS011;21813;49.686;21.766;2023-02-24T01:32:34;24.27;;;9.40;;
35225;SDS011;21813;49.686;21.766;2023-02-24T01:35:00;23.77;;;10.20;;
35225;SDS011;21813;49.686;21.766;2023-02-24T01:39:58;26.58;;;10.93;;
35225;SDS011;21813;49.686;21.766;2023-02-24T01:42:24;25.63;;;12.63;;
35225;SDS011;21813;49.686;21.766;2023-02-24T01:47:18;28.75;;;12.38;;
35225;SDS011;21813;49.686;21.766;2023-02-24T01:49:45;27.38;;;11.00;;
35225;SDS011;21813;49.686;21.766;2023-02-24T01:52:19;21.25;;;10.88;;
35225;SDS011;21813;49.686;21.766;2023-02-24T02:05:53;24.65;;;10.38;;
35225;SDS011;21813;49.686;21.766;2023-02-24T02:08:23;24.63;;;11.15;;
35225;SDS011;21813;49.686;21.766;2023-02-24T02:10:50;27.88;;;11.07;;
35225;SDS011;21813;49.686;21.766;2023-02-24T02:13:24;27.95;;;9.85;;
35225;SDS011;21813;49.686;21.766;2023-02-24T02:16:37;22.02;;;9.75;;
35225;SDS011;21813;49.686;21.766;2023-02-24T02:21:48;19.05;;;9.35;;
35225;SDS011;21813;49.686;21.766;2023-02-24T02:27:53;22.05;;;9.40;;
35225;SDS011;21813;49.686;21.766;2023-02-24T02:30:43;21.30;;;9.32;;
35225;SDS011;21813;49.686;21.766;2023-02-24T02:36:03;21.80;;;10.40;;
35225;SDS011;21813;49.686;21.766;2023-02-24T02:39:00;27.52;;;10.32;;
35225;SDS011;21813;49.686;21.766;2023-02-24T02:44:31;21.30;;;9.55;;
35225;SDS011;21813;49.686;21.766;2023-02-24T02:47:12;26.65;;;9.98;;
35225;SDS011;21813;49.686;21.766;2023-02-24T02:49:41;22.23;;;10.75;;
35225;SDS011;21813;49.686;21.766;2023-02-24T02:52:17;23.05;;;10.02;;
35225;SDS011;21813;49.686;21.766;2023-02-24T02:54:55;24.33;;;10.15;;
35225;SDS011;21813;49.686;21.766;2023-02-24T02:57:33;20.60;;;10.15;;
35225;SDS011;21813;49.686;21.766;2023-02-24T03:00:08;21.05;;;10.48;;
35225;SDS011;21813;49.686;21.766;2023-02-24T03:02:41;25.95;;;11.85;;
35225;SDS011;21813;49.686;21.766;2023-02-24T03:05:13;30.90;;;11.73;;
35225;SDS011;21813;49.686;21.766;2023-02-24T03:07:51;27.42;;;12.02;;
35225;SDS011;21813;49.686;21.766;2023-02-24T03:10:19;28.30;;;11.32;;
35225;SDS011;21813;49.686;21.766;2023-02-24T03:12:54;22.15;;;9.90;;
35225;SDS011;21813;49.686;21.766;2023-02-24T03:15:26;28.67;;;10.82;;
35225;SDS011;21813;49.686;21.766;2023-02-24T03:18:02;27.20;;;11.45;;
35225;SDS011;21813;49.686;21.766;2023-02-24T03:20:37;22.08;;;9.68;;
35225;SDS011;21813;49.686;21.766;2023-02-24T03:23:12;23.90;;;10.63;;
35225;SDS011;21813;49.686;21.766;2023-02-24T03:25:47;21.58;;;10.93;;
35225;SDS011;21813;49.686;21.766;2023-02-24T03:28:25;18.83;;;10.27;;
35225;SDS011;21813;49.686;21.766;2023-02-24T03:31:06;24.40;;;11.38;;
35225;SDS011;21813;49.686;21.766;2023-02-24T03:33:43;17.98;;;9.43;;
35225;SDS011;21813;49.686;21.766;2023-02-24T03:43:07;21.05;;;8.98;;
35225;SDS011;21813;49.686;21.766;2023-02-24T03:49:43;21.88;;;8.82;;
35225;SDS011;21813;49.686;21.766;2023-02-24T04:12:20;23.70;;;9.95;;
35225;SDS011;21813;49.686;21.766;2023-02-24T04:15:04;17.98;;;8.75;;
35225;SDS011;21813;49.686;21.766;2023-02-24T04:17:43;21.10;;;9.52;;
35225;SDS011;21813;49.686;21.766;2023-02-24T04:20:15;14.40;;;9.27;;
35225;SDS011;21813;49.686;21.766;2023-02-24T04:22:46;25.98;;;10.13;;
35225;SDS011;21813;49.686;21.766;2023-02-24T04:33:43;25.70;;;10.32;;
35225;SDS011;21813;49.686;21.766;2023-02-24T04:36:16;17.20;;;8.93;;
35225;SDS011;21813;49.686;21.766;2023-02-24T04:38:43;17.38;;;10.15;;
35225;SDS011;21813;49.686;21.766;2023-02-24T04:41:11;21.92;;;10.02;;
35225;SDS011;21813;49.686;21.766;2023-02-24T04:43:48;20.92;;;10.13;;
35225;SDS011;21813;49.686;21.766;2023-02-24T04:46:33;24.83;;;10.77;;
35225;SDS011;21813;49.686;21.766;2023-02-24T04:52:35;17.05;;;10.05;;
35225;SDS011;21813;49.686;21.766;2023-02-24T04:55:27;23.30;;;11.30;;
35225;SDS011;21813;49.686;21.766;2023-02-24T05:02:13;22.50;;;10.05;;
35225;SDS011;21813;49.686;21.766;2023-02-24T05:07:33;24.95;;;10.98;;
35225;SDS011;21813;49.686;21.766;2023-02-24T05:09:59;20.33;;;9.95;;
35225;SDS011;21813;49.686;21.766;2023-02-24T05:12:28;23.52;;;11.02;;
35225;SDS011;21813;49.686;21.766;2023-02-24T05:14:56;26.90;;;11.32;;
35225;SDS011;21813;49.686;21.766;2023-02-24T05:17:26;22.30;;;10.32;;
35225;SDS011;21813;49.686;21.766;2023-02-24T05:19:56;21.33;;;9.27;;
35225;SDS011;21813;49.686;21.766;2023-02-24T05:22:47;20.23;;;10.05;;
35225;SDS011;21813;49.686;21.766;2023-02-24T05:25:16;28.88;;;11.32;;
35225;SDS011;21813;49.686;21.766;2023-02-24T05:27:45;21.25;;;11.18;;
35225;SDS011;21813;49.686;21.766;2023-02-24T05:31:08;21.27;;;9.85;;
35225;SDS011;21813;49.686;21.766;2023-02-24T05:33:40;19.75;;;10.27;;
35225;SDS011;21813;49.686;21.766;2023-02-24T05:36:09;25.95;;;10.82;;
35225;SDS011;21813;49.686;21.766;2023-02-24T05:38:38;22.17;;;11.23;;
35225;SDS011;21813;49.686;21.766;2023-02-24T05:41:08;22.88;;;11.13;;
35225;SDS011;21813;49.686;21.766;2023-02-24T05:48:57;26.92;;;12.60;;
35225;SDS011;21813;49.686;21.766;2023-02-24T05:56:39;30.08;;;13.15;;
35225;SDS011;21813;49.686;21.766;2023-02-24T05:59:10;29.23;;;13.27;;
35225;SDS011;21813;49.686;21.766;2023-02-24T06:01:38;26.40;;;13.00;;
35225;SDS011;21813;49.686;21.766;2023-02-24T06:04:13;30.00;;;12.98;;
35225;SDS011;21813;49.686;21.766;2023-02-24T06:06:46;30.60;;;13.57;;
35225;SDS011;21813;49.686;21.766;2023-02-24T06:09:18;25.92;;;13.20;;
35225;SDS011;21813;49.686;21.766;2023-02-24T06:11:47;31.98;;;13.38;;
35225;SDS011;21813;49.686;21.766;2023-02-24T06:14:16;29.33;;;14.05;;
35225;SDS011;21813;49.686;21.766;2023-02-24T06:16:42;22.95;;;13.00;;
35225;SDS011;21813;49.686;21.766;2023-02-24T06:22:47;33.28;;;14.88;;
35225;SDS011;21813;49.686;21.766;2023-02-24T06:25:36;31.38;;;15.27;;
35225;SDS011;21813;49.686;21.766;2023-02-24T06:28:46;31.10;;;14.35;;
35225;SDS011;21813;49.686;21.766;2023-02-24T06:31:13;29.80;;;14.60;;
35225;SDS011;21813;49.686;21.766;2023-02-24T06:33:49;29.08;;;15.98;;
35225;SDS011;21813;49.686;21.766;2023-02-24T06:36:25;24.80;;;13.70;;
35225;SDS011;21813;49.686;21.766;2023-02-24T06:38:54;26.20;;;14.65;;
35225;SDS011;21813;49.686;21.766;2023-02-24T06:41:22;29.70;;;13.90;;
35225;SDS011;21813;49.686;21.766;2023-02-24T06:43:53;28.55;;;14.60;;
35225;SDS011;21813;49.686;21.766;2023-02-24T06:46:20;30.95;;;15.73;;
35225;SDS011;21813;49.686;21.766;2023-02-24T06:48:46;33.50;;;16.65;;
35225;SDS011;21813;49.686;21.766;2023-02-24T06:51:13;30.38;;;15.25;;
35225;SDS011;21813;49.686;21.766;2023-02-24T06:53:40;30.40;;;14.63;;
35225;SDS011;21813;49.686;21.766;2023-02-24T06:56:12;32.97;;;15.73;;
35225;SDS011;21813;49.686;21.766;2023-02-24T06:58:40;31.48;;;15.48;;
35225;SDS011;21813;49.686;21.766;2023-02-24T07:11:03;30.20;;;14.30;;
35225;SDS011;21813;49.686;21.766;2023-02-24T07:13:34;31.20;;;14.98;;
35225;SDS011;21813;49.686;21.766;2023-02-24T07:16:04;20.33;;;10.48;;
35225;SDS011;21813;49.686;21.766;2023-02-24T07:18:32;25.42;;;14.85;;
35225;SDS011;21813;49.686;21.766;2023-02-24T07:21:01;22.33;;;14.18;;
35225;SDS011;21813;49.686;21.766;2023-02-24T07:23:38;26.70;;;14.70;;
35225;SDS011;21813;49.686;21.766;2023-02-24T07:26:06;29.27;;;14.95;;
35225;SDS011;21813;49.686;21.766;2023-02-24T07:28:39;31.05;;;15.23;;
35225;SDS011;21813;49.686;21.766;2023-02-24T07:31:07;31.60;;;14.85;;
35225;SDS011;21813;49.686;21.766;2023-02-24T07:36:04;28.58;;;16.17;;
35225;SDS011;21813;49.686;21.766;2023-02-24T07:38:46;28.65;;;14.95;;
35225;SDS011;21813;49.686;21.766;2023-02-24T07:41:12;28.45;;;14.52;;
35225;SDS011;21813;49.686;21.766;2023-02-24T07:43:44;24.50;;;14.50;;
35225;SDS011;21813;49.686;21.766;2023-02-24T07:46:12;25.60;;;14.55;;
35225;SDS011;21813;49.686;21.766;2023-02-24T07:48:40;30.60;;;14.48;;
35225;SDS011;21813;49.686;21.766;2023-02-24T07:53:39;25.65;;;14.45;;
35225;SDS011;21813;49.686;21.766;2023-02-24T07:56:12;36.30;;;16.50;;
35225;SDS011;21813;49.686;21.766;2023-02-24T07:58:40;23.00;;;14.45;;
35225;SDS011;21813;49.686;21.766;2023-02-24T08:01:12;28.77;;;14.43;;
35225;SDS011;21813;49.686;21.766;2023-02-24T08:03:52;29.17;;;15.30;;
35225;SDS011;21813;49.686;21.766;2023-02-24T08:06:22;26.17;;;14.88;;
35225;SDS011;21813;49.686;21.766;2023-02-24T08:08:53;30.88;;;15.77;;
35225;SDS011;21813;49.686;21.766;2023-02-24T08:11:23;26.80;;;14.50;;
35225;SDS011;21813;49.686;21.766;2023-02-24T08:13:50;33.70;;;15.55;;
35225;SDS011;21813;49.686;21.766;2023-02-24T08:16:16;29.42;;;14.77;;
35225;SDS011;21813;49.686;21.766;2023-02-24T08:18:43;21.90;;;14.77;;
35225;SDS011;21813;49.686;21.766;2023-02-24T08:23:42;28.42;;;13.93;;
35225;SDS011;21813;49.686;21.766;2023-02-24T08:26:10;31.95;;;15.73;;
35225;SDS011;21813;49.686;21.766;2023-02-24T08:28:38;24.15;;;13.70;;
35225;SDS011;21813;49.686;21.766;2023-02-24T08:31:04;32.67;;;14.73;;
35225;SDS011;21813;49.686;21.766;2023-02-24T08:33:32;25.50;;;15.52;;
35225;SDS011;21813;49.686;21.766;2023-02-24T08:36:01;28.42;;;15.50;;
35225;SDS011;21813;49.686;21.766;2023-02-24T08:38:29;24.40;;;16.60;;
35225;SDS011;21813;49.686;21.766;2023-02-24T08:41:16;24.33;;;14.95;;
35225;SDS011;21813;49.686;21.766;2023-02-24T08:43:44;30.52;;;14.75;;
35225;SDS011;21813;49.686;21.766;2023-02-24T08:48:50;27.10;;;15.35;;
35225;SDS011;21813;49.686;21.766;2023-02-24T08:51:24;30.05;;;16.80;;
35225;SDS011;21813;49.686;21.766;2023-02-24T08:54:00;25.08;;;14.70;;
35225;SDS011;21813;49.686;21.766;2023-02-24T08:56:35;23.27;;;14.60;;
35225;SDS011;21813;49.686;21.766;2023-02-24T08:59:11;22.63;;;15.18;;
35225;SDS011;21813;49.686;21.766;2023-02-24T09:02:02;23.52;;;14.85;;
35225;SDS011;21813;49.686;21.766;2023-02-24T09:07:24;26.98;;;16.38;;
35225;SDS011;21813;49.686;21.766;2023-02-24T09:09:52;25.48;;;14.55;;
35225;SDS011;21813;49.686;21.766;2023-02-24T09:12:23;28.33;;;16.08;;
35225;SDS011;21813;49.686;21.766;2023-02-24T09:14:52;25.05;;;14.95;;
35225;SDS011;21813;49.686;21.766;2023-02-24T09:17:23;27.60;;;14.52;;
35225;SDS011;21813;49.686;21.766;2023-02-24T09:20:18;27.00;;;15.43;;
35225;SDS011;21813;49.686;21.766;2023-02-24T09:22:55;28.20;;;15.85;;
35225;SDS011;21813;49.686;21.766;2023-02-24T09:25:30;28.02;;;15.95;;
35225;SDS011;21813;49.686;21.766;2023-02-24T09:30:46;27.52;;;15.00;;
35225;SDS011;21813;49.686;21.766;2023-02-24T09:33:16;27.13;;;17.25;;
35225;SDS011;21813;49.686;21.766;2023-02-24T09:35:49;27.63;;;16.10;;
35225;SDS011;21813;49.686;21.766;2023-02-24T09:38:27;28.55;;;15.95;;
35225;SDS011;21813;49.686;21.766;2023-02-24T09:41:21;27.73;;;17.13;;
35225;SDS011;21813;49.686;21.766;2023-02-24T09:44:05;29.10;;;16.50;;
35225;SDS011;21813;49.686;21.766;2023-02-24T09:46:48;33.65;;;17.10;;
35225;SDS011;21813;49.686;21.766;2023-02-24T09:49:27;28.63;;;16.42;;
35225;SDS011;21813;49.686;21.766;2023-02-24T09:52:16;29.73;;;17.20;;
35225;SDS011;21813;49.686;21.766;2023-02-24T09:54:44;28.58;;;17.02;;
35225;SDS011;21813;49.686;21.766;2023-02-24T09:57:36;28.73;;;15.60;;
35225;SDS011;21813;49.686;21.766;2023-02-24T10:00:31;27.85;;;16.50;;
35225;SDS011;21813;49.686;21.766;2023-02-24T10:03:03;28.25;;;16.02;;
35225;SDS011;21813;49.686;21.766;2023-02-24T10:06:08;29.23;;;16.55;;
35225;SDS011;21813;49.686;21.766;2023-02-24T10:08:38;26.33;;;16.70;;
35225;SDS011;21813;49.686;21.766;2023-02-24T10:11:08;31.80;;;17.20;;
35225;SDS011;21813;49.686;21.766;2023-02-24T10:13:38;38.03;;;18.77;;
35225;SDS011;21813;49.686;21.766;2023-02-24T10:16:13;30.60;;;18.85;;
35225;SDS011;21813;49.686;21.766;2023-02-24T10:21:59;33.03;;;17.95;;
35225;SDS011;21813;49.686;21.766;2023-02-24T10:24:36;30.15;;;18.08;;
35225;SDS011;21813;49.686;21.766;2023-02-24T10:32:47;34.85;;;20.13;;
35225;SDS011;21813;49.686;21.766;2023-02-24T10:35:19;29.52;;;17.20;;
35225;SDS011;21813;49.686;21.766;2023-02-24T10:37:50;29.38;;;18.65;;
35225;SDS011;21813;49.686;21.766;2023-02-24T10:40:18;29.45;;;18.52;;
35225;SDS011;21813;49.686;21.766;2023-02-24T10:43:08;32.38;;;18.35;;
35225;SDS011;21813;49.686;21.766;2023-02-24T10:45:37;32.85;;;20.20;;
35225;SDS011;21813;49.686;21.766;2023-02-24T10:48:14;31.77;;;19.25;;
35225;SDS011;21813;49.686;21.766;2023-02-24T10:50:52;33.55;;;20.25;;
35225;SDS011;21813;49.686;21.766;2023-02-24T10:53:21;34.50;;;20.13;;
35225;SDS011;21813;49.686;21.766;2023-02-24T10:56:10;36.05;;;20.65;;
35225;SDS011;21813;49.686;21.766;2023-02-24T10:59:01;37.03;;;21.48;;
35225;SDS011;21813;49.686;21.766;2023-02-24T11:01:51;37.45;;;20.88;;
35225;SDS011;21813;49.686;21.766;2023-02-24T11:07:30;38.03;;;20.67;;
35225;SDS011;21813;49.686;21.766;2023-02-24T11:10:19;35.58;;;21.88;;
35225;SDS011;21813;49.686;21.766;2023-02-24T11:12:51;37.67;;;21.95;;
35225;SDS011;21813;49.686;21.766;2023-02-24T11:18:28;39.20;;;23.08;;
35225;SDS011;21813;49.686;21.766;2023-02-24T11:20:59;39.47;;;22.67;;
35225;SDS011;21813;49.686;21.766;2023-02-24T11:23:29;41.47;;;23.27;;
35225;SDS011;21813;49.686;21.766;2023-02-24T11:26:20;46.55;;;25.75;;
35225;SDS011;21813;49.686;21.766;2023-02-24T11:31:24;42.60;;;23.35;;
35225;SDS011;21813;49.686;21.766;2023-02-24T11:47:35;41.15;;;25.23;;
35225;SDS011;21813;49.686;21.766;2023-02-24T11:53:02;39.65;;;25.30;;
35225;SDS011;21813;49.686;21.766;2023-02-24T11:55:39;40.10;;;24.38;;
35225;SDS011;21813;49.686;21.766;2023-02-24T11:58:17;39.05;;;23.40;;
35225;SDS011;21813;49.686;21.766;2023-02-24T12:01:00;40.35;;;24.48;;
35225;SDS011;21813;49.686;21.766;2023-02-24T12:03:55;36.47;;;23.55;;
35225;SDS011;21813;49.686;21.766;2023-02-24T12:06:36;40.33;;;22.88;;
35225;SDS011;21813;49.686;21.766;2023-02-24T12:09:17;43.40;;;26.48;;
35225;SDS011;21813;49.686;21.766;2023-02-24T12:25:15;39.78;;;23.50;;
35225;SDS011;21813;49.686;21.766;2023-02-24T12:28:01;34.95;;;21.85;;
35225;SDS011;21813;49.686;21.766;2023-02-24T12:39:17;44.15;;;24.98;;
35225;SDS011;21813;49.686;21.766;2023-02-24T12:44:43;44.22;;;24.50;;
35225;SDS011;21813;49.686;21.766;2023-02-24T12:47:25;39.67;;;24.65;;
35225;SDS011;21813;49.686;21.766;2023-02-24T12:50:15;41.88;;;26.13;;
35225;SDS011;21813;49.686;21.766;2023-02-24T12:55:53;42.10;;;24.42;;
35225;SDS011;21813;49.686;21.766;2023-02-24T12:58:38;39.53;;;24.38;;
35225;SDS011;21813;49.686;21.766;2023-02-24T13:01:23;44.92;;;24.70;;
35225;SDS011;21813;49.686;21.766;2023-02-24T13:04:13;44.40;;;25.90;;
35225;SDS011;21813;49.686;21.766;2023-02-24T13:12:17;41.70;;;26.58;;
35225;SDS011;21813;49.686;21.766;2023-02-24T13:14:51;45.25;;;26.80;;
35225;SDS011;21813;49.686;21.766;2023-02-24T13:17:19;43.90;;;26.45;;
35225;SDS011;21813;49.686;21.766;2023-02-24T13:19:47;47.17;;;28.08;;
35225;SDS011;21813;49.686;21.766;2023-02-24T13:24:42;47.00;;;27.80;;
35225;SDS011;21813;49.686;21.766;2023-02-24T13:27:22;48.47;;;28.20;;
35225;SDS011;21813;49.686;21.766;2023-02-24T13:29:50;50.05;;;28.38;;
35225;SDS011;21813;49.686;21.766;2023-02-24T13:32:23;46.20;;;28.20;;
35225;SDS011;21813;49.686;21.766;2023-02-24T13:34:53;51.28;;;28.75;;
35225;SDS011;21813;49.686;21.766;2023-02-24T13:37:30;52.47;;;30.08;;
35225;SDS011;21813;49.686;21.766;2023-02-24T13:42:38;46.53;;;27.15;;
35225;SDS011;21813;49.686;21.766;2023-02-24T13:55:58;50.75;;;30.00;;
35225;SDS011;21813;49.686;21.766;2023-02-24T13:58:30;53.17;;;30.70;;
35225;SDS011;21813;49.686;21.766;2023-02-24T14:01:11;51.40;;;29.42;;
35225;SDS011;21813;49.686;21.766;2023-02-24T14:03:40;51.70;;;30.08;;
35225;SDS011;21813;49.686;21.766;2023-02-24T14:06:43;55.30;;;29.90;;
35225;SDS011;21813;49.686;21.766;2023-02-24T14:11:40;54.83;;;30.13;;
35225;SDS011;21813;49.686;21.766;2023-02-24T14:14:11;57.15;;;31.38;;
35225;SDS011;21813;49.686;21.766;2023-02-24T14:16:40;60.50;;;32.15;;
35225;SDS011;21813;49.686;21.766;2023-02-24T14:19:13;57.30;;;30.92;;
35225;SDS011;21813;49.686;21.766;2023-02-24T14:21:52;60.17;;;32.42;;
35225;SDS011;21813;49.686;21.766;2023-02-24T14:24:20;54.83;;;30.45;;
35225;SDS011;21813;49.686;21.766;2023-02-24T14:26:49;63.67;;;32.97;;
35225;SDS011;21813;49.686;21.766;2023-02-24T14:29:18;61.72;;;32.80;;
35225;SDS011;21813;49.686;21.766;2023-02-24T14:31:48;63.20;;;31.83;;
35225;SDS011;21813;49.686;21.766;2023-02-24T14:34:18;55.80;;;31.80;;
35225;SDS011;21813;49.686;21.766;2023-02-24T14:36:46;61.25;;;32.17;;
35225;SDS011;21813;49.686;21.766;2023-02-24T14:39:16;58.47;;;31.52;;
35225;SDS011;21813;49.686;21.766;2023-02-24T14:41:45;62.70;;;31.40;;
35225;SDS011;21813;49.686;21.766;2023-02-24T14:44:33;55.65;;;31.30;;
35225;SDS011;21813;49.686;21.766;2023-02-24T14:46:59;63.75;;;32.38;;
35225;SDS011;21813;49.686;21.766;2023-02-24T14:49:29;61.75;;;31.67;;
35225;SDS011;21813;49.686;21.766;2023-02-24T14:52:03;59.95;;;33.80;;
35225;SDS011;21813;49.686;21.766;2023-02-24T14:57:17;60.80;;;30.77;;
35225;SDS011;21813;49.686;21.766;2023-02-24T14:59:48;63.92;;;32.55;;
35225;SDS011;21813;49.686;21.766;2023-02-24T15:02:21;60.13;;;32.75;;
35225;SDS011;21813;49.686;21.766;2023-02-24T15:04:53;63.95;;;33.40;;
35225;SDS011;21813;49.686;21.766;2023-02-24T15:07:22;64.55;;;33.50;;
35225;SDS011;21813;49.686;21.766;2023-02-24T15:09:51;61.58;;;31.35;;
35225;SDS011;21813;49.686;21.766;2023-02-24T15:15:02;70.18;;;33.08;;
35225;SDS011;21813;49.686;21.766;2023-02-24T15:17:31;63.90;;;33.10;;
35225;SDS011;21813;49.686;21.766;2023-02-24T15:19:58;63.97;;;32.00;;
35225;SDS011;21813;49.686;21.766;2023-02-24T15:22:24;65.45;;;33.20;;
35225;SDS011;21813;49.686;21.766;2023-02-24T15:25:08;68.53;;;34.25;;
35225;SDS011;21813;49.686;21.766;2023-02-24T15:27:52;66.68;;;32.78;;
35225;SDS011;21813;49.686;21.766;2023-02-24T15:30:37;67.78;;;33.78;;
35225;SDS011;21813;49.686;21.766;2023-02-24T15:33:21;64.65;;;33.08;;
35225;SDS011;21813;49.686;21.766;2023-02-24T15:35:51;66.97;;;34.25;;
35225;SDS011;21813;49.686;21.766;2023-02-24T15:38:19;68.70;;;33.80;;
35225;SDS011;21813;49.686;21.766;2023-02-24T15:40:56;67.68;;;32.88;;
35225;SDS011;21813;49.686;21.766;2023-02-24T15:43:37;75.43;;;37.25;;
35225;SDS011;21813;49.686;21.766;2023-02-24T15:48:43;71.13;;;34.67;;
35225;SDS011;21813;49.686;21.766;2023-02-24T15:51:44;66.10;;;33.13;;
35225;SDS011;21813;49.686;21.766;2023-02-24T15:54:10;70.40;;;34.17;;
35225;SDS011;21813;49.686;21.766;2023-02-24T15:56:39;70.60;;;33.88;;
35225;SDS011;21813;49.686;21.766;2023-02-24T15:59:06;66.50;;;33.08;;
35225;SDS011;21813;49.686;21.766;2023-02-24T16:01:32;71.22;;;33.53;;
35225;SDS011;21813;49.686;21.766;2023-02-24T16:03:59;71.07;;;34.83;;
35225;SDS011;21813;49.686;21.766;2023-02-24T16:06:25;69.80;;;33.15;;
35225;SDS011;21813;49.686;21.766;2023-02-24T16:08:53;73.35;;;34.33;;
35225;SDS011;21813;49.686;21.766;2023-02-24T16:11:23;74.65;;;34.70;;
35225;SDS011;21813;49.686;21.766;2023-02-24T16:16:21;75.15;;;36.28;;
35225;SDS011;21813;49.686;21.766;2023-02-24T16:18:47;71.95;;;35.58;;
35225;SDS011;21813;49.686;21.766;2023-02-24T16:21:14;79.03;;;37.03;;
35225;SDS011;21813;49.686;21.766;2023-02-24T16:23:39;70.68;;;35.05;;
35225;SDS011;21813;49.686;21.766;2023-02-24T16:26:06;76.00;;;35.97;;
35225;SDS011;21813;49.686;21.766;2023-02-24T16:28:36;74.65;;;38.38;;
35225;SDS011;21813;49.686;21.766;2023-02-24T16:31:02;72.97;;;35.63;;
35225;SDS011;21813;49.686;21.766;2023-02-24T16:33:28;77.15;;;35.55;;
35225;SDS011;21813;49.686;21.766;2023-02-24T16:35:55;79.47;;;37.42;;
35225;SDS011;21813;49.686;21.766;2023-02-24T16:38:21;81.53;;;37.08;;
35225;SDS011;21813;49.686;21.766;2023-02-24T16:40:50;84.70;;;39.10;;
35225;SDS011;21813;49.686;21.766;2023-02-24T16:43:17;75.50;;;37.63;;
35225;SDS011;21813;49.686;21.766;2023-02-24T16:45:43;78.15;;;36.53;;
35225;SDS011;21813;49.686;21.766;2023-02-24T16:48:14;74.05;;;35.90;;
35225;SDS011;21813;49.686;21.766;2023-02-24T16:50:44;74.90;;;34.15;;
35225;SDS011;21813;49.686;21.766;2023-02-24T16:53:12;85.68;;;36.65;;
35225;SDS011;21813;49.686;21.766;2023-02-24T16:55:42;79.60;;;35.90;;
35225;SDS011;21813;49.686;21.766;2023-02-24T16:58:11;70.50;;;33.03;;
35225;SDS011;21813;49.686;21.766;2023-02-24T17:00:37;75.55;;;34.22;;
35225;SDS011;21813;49.686;21.766;2023-02-24T17:03:06;84.22;;;36.08;;
35225;SDS011;21813;49.686;21.766;2023-02-24T17:05:44;83.60;;;36.80;;
35225;SDS011;21813;49.686;21.766;2023-02-24T17:08:13;77.75;;;35.60;;
35225;SDS011;21813;49.686;21.766;2023-02-24T17:10:41;73.25;;;33.55;;
35225;SDS011;21813;49.686;21.766;2023-02-24T17:13:14;73.80;;;34.60;;
35225;SDS011;21813;49.686;21.766;2023-02-24T17:15:43;80.15;;;37.70;;
35225;SDS011;21813;49.686;21.766;2023-02-24T17:18:09;78.00;;;35.35;;
35225;SDS011;21813;49.686;21.766;2023-02-24T17:20:37;74.30;;;35.65;;
35225;SDS011;21813;49.686;21.766;2023-02-24T17:23:04;77.50;;;35.60;;
35225;SDS011;21813;49.686;21.766;2023-02-24T17:25:32;75.55;;;34.88;;
35225;SDS011;21813;49.686;21.766;2023-02-24T17:28:01;74.45;;;34.70;;
35225;SDS011;21813;49.686;21.766;2023-02-24T17:30:30;51.08;;;24.35;;
35225;SDS011;21813;49.686;21.766;2023-02-24T17:32:58;77.07;;;34.65;;
35225;SDS011;21813;49.686;21.766;2023-02-24T17:35:26;72.03;;;33.28;;
35225;SDS011;21813;49.686;21.766;2023-02-24T17:37:53;71.82;;;35.20;;
35225;SDS011;21813;49.686;21.766;2023-02-24T17:40:21;73.60;;;35.15;;
35225;SDS011;21813;49.686;21.766;2023-02-24T17:42:48;69.50;;;33.28;;
35225;SDS011;21813;49.686;21.766;2023-02-24T17:45:15;79.18;;;35.95;;
35225;SDS011;21813;49.686;21.766;2023-02-24T17:47:40;89.00;;;38.80;;
35225;SDS011;21813;49.686;21.766;2023-02-24T17:50:08;86.57;;;38.00;;
35225;SDS011;21813;49.686;21.766;2023-02-24T17:52:35;83.32;;;37.75;;
35225;SDS011;21813;49.686;21.766;2023-02-24T17:55:03;78.45;;;36.10;;
35225;SDS011;21813;49.686;21.766;2023-02-24T17:57:29;78.32;;;37.67;;
35225;SDS011;21813;49.686;21.766;2023-02-24T17:59:58;82.00;;;38.47;;
35225;SDS011;21813;49.686;21.766;2023-02-24T18:02:24;86.40;;;38.80;;
35225;SDS011;21813;49.686;21.766;2023-02-24T18:04:51;81.57;;;39.03;;
35225;SDS011;21813;49.686;21.766;2023-02-24T18:07:16;79.80;;;36.65;;
35225;SDS011;21813;49.686;21.766;2023-02-24T18:09:43;80.95;;;36.58;;
35225;SDS011;21813;49.686;21.766;2023-02-24T18:12:08;75.30;;;35.95;;
35225;SDS011;21813;49.686;21.766;2023-02-24T18:14:35;76.63;;;37.33;;
35225;SDS011;21813;49.686;21.766;2023-02-24T18:17:01;77.20;;;38.17;;
35225;SDS011;21813;49.686;21.766;2023-02-24T18:19:27;78.45;;;35.75;;
35225;SDS011;21813;49.686;21.766;2023-02-24T18:21:54;83.40;;;36.60;;